Portada
METAR-TAF:

METAR-TAF

Aeroports :

Aeroport Internacional de Pequín

Pequín, Xina

latitud: 39-56N, longitud: 116-17E, altitud: 55 m

Observació

L'informe es va fer fa 42 minuts, a les 01:30 UTC
Vent 4 kt del Nord/Nord-Est, variant entre Nord-Oest i Est
Temperatura 24°C
Humitat 29%
Pressió 1006 hPa
Visibilitat 10 km o més
sense núvols per sota de 1500 mi sense presència de cumulonimbus.

METAR: ZBAA 170130Z 02002MPS 320V080 CAVOK 24/05 Q1006 NOSIG

Hora: 10:12 (02:12 UTC)

Pronòstic

L'informe es va fer fa 5 hores i 3 minuts, a les 21:09 UTC
Pronòstic vàlid del 17 a les 00 UTC al 17 a les 24 UTC
Vent 8 kt del Nord
Visibilitat 10 km o més
sense núvols per sota de 1500 mi sense presència de cumulonimbus.

TAF: ZBAA 162109Z 1700/1724 01004MPS CAVOK TX30/1707Z TN12/1721Z

Observacions i pronòstics meteorològics de més de 4000 aeroports (METAR i TAF).

Les estacions disponibles són els punts grocs i vermells al mapa.

Posi el ratolí al punt desitjat per veure el nom de l'estació.

Feu clic per veure les observacions i els pronòstics meteorològics.

Per canviar el mapa: feu clic els botons verds amb una creu de color negre per apropar; al botó verd amb un guió per allunyar la imatge; o en les fletxes verdes per a mapes adjacents.


METAR-TAF: